Time;durP1;ratioP1;P1;durP2;ratioP2;P2;SDS_P1;SDS_P2;PMS_P1;PMS_P2;Temp;Humidity;BMP_temperature;BMP_pressure;BME280_temperature;BME280_humidity;BME280_pressure;Samples;Min_cycle;Max_cycle;Signal;HPM_P1;HPM_P2
2022/06/30 00:01:31;;;;;;;;;;;;;;;20.75;68.42;101082.03;5054116;28;19970;-37
2022/06/30 00:03:57;;;;;;;;;;;;;;;20.74;68.25;101077.63;5053975;28;19920;-37
2022/06/30 00:06:22;;;;;;;;;;;;;;;20.72;68.43;101075.19;5053906;28;19916;-37
2022/06/30 00:08:47;;;;;;;;;;;;;;;20.71;68.11;101076.28;5053708;28;19935;-37
2022/06/30 00:11:12;;;;;;;;;;;;;;;20.71;68.42;101072.72;5053706;28;19912;-37
2022/06/30 00:13:38;;;;;;;;;;;;;;;20.70;68.39;101068.34;5053257;28;19923;-37
2022/06/30 00:16:05;;;;;;;;;;;;;;;20.68;68.34;101074.13;5054226;28;19923;-37
2022/06/30 00:18:30;;;;;;;;;;;;;;;20.62;69.71;101064.31;5053557;28;20415;-37
2022/06/30 00:20:55;;;;;;;;;;;;;;;20.55;69.10;101056.44;5053815;28;20008;-37
2022/06/30 00:23:21;;;;;;;;;;;;;;;20.54;68.51;101064.94;5052539;28;20396;-37
2022/06/30 00:25:46;;;;;;;;;;;;;;;20.55;68.52;101066.59;5053266;28;19964;-37
2022/06/30 00:28:11;;;;;;;;;;;;;;;20.53;68.71;101052.34;5053389;28;19970;-37
2022/06/30 00:30:36;;;;;;;;;;;;;;;20.47;68.76;101054.31;5053577;28;19912;-37
2022/06/30 00:33:01;;;;;;;;;;;;;;;20.45;68.97;101052.97;5053186;28;20361;-37
2022/06/30 00:35:27;;;;;;;;;;;;;;;20.42;68.93;101046.09;5053085;28;20375;-37
2022/06/30 00:37:52;;;;;;;;;;;;;;;20.43;68.75;101041.44;5053861;28;19919;-37
2022/06/30 00:40:17;;;;;;;;;;;;;;;20.42;68.66;101042.53;5053022;28;19936;-37
2022/06/30 00:42:42;;;;;;;;;;;;;;;20.38;68.69;101036.81;5053014;28;20427;-37
2022/06/30 00:45:08;;;;;;;;;;;;;;;20.37;68.59;101040.69;5053266;28;19913;-37
2022/06/30 00:47:33;;;;;;;;;;;;;;;20.37;68.60;101042.59;5054057;28;19963;-37
2022/06/30 00:49:59;;;;;;;;;;;;;;;20.33;68.80;101043.19;5053329;28;19916;-37
2022/06/30 00:52:25;;;;;;;;;;;;;;;20.32;68.53;101041.53;5051637;28;19917;-37
2022/06/30 00:54:51;;;;;;;;;;;;;;;20.29;68.75;101039.38;5052836;28;20011;-37
2022/06/30 00:57:17;;;;;;;;;;;;;;;20.28;68.88;101037.75;5052384;28;20007;-37
2022/06/30 00:59:43;;;;;;;;;;;;;;;20.26;69.01;101033.66;5053190;28;19920;-37
2022/06/30 01:02:08;;;;;;;;;;;;;;;20.24;68.88;101049.59;5053737;28;19912;-37
2022/06/30 01:04:34;;;;;;;;;;;;;;;20.23;68.82;101047.97;5053164;28;19924;-37
2022/06/30 01:07:00;;;;;;;;;;;;;;;20.20;68.82;101043.03;5054010;28;19999;-37
2022/06/30 01:14:54;;;;;;;;;;;;;;;20.15;69.23;101040.34;5053405;28;19919;-36
2022/06/30 01:17:20;;;;;;;;;;;;;;;20.14;69.13;101050.53;5053334;28;20284;-37
2022/06/30 01:19:54;;;;;;;;;;;;;;;20.14;69.16;101056.00;5053240;28;19912;-37
2022/06/30 01:22:20;;;;;;;;;;;;;;;20.10;69.46;101046.72;5053579;28;19920;-37
2022/06/30 01:24:45;;;;;;;;;;;;;;;20.09;69.44;101047.81;5052897;28;19928;-37
2022/06/30 01:27:11;;;;;;;;;;;;;;;20.08;69.41;101048.13;5053098;28;19917;-36
2022/06/30 01:29:36;;;;;;;;;;;;;;;20.06;69.79;101053.91;5055901;28;19913;-37
2022/06/30 01:32:02;;;;;;;;;;;;;;;20.03;69.53;101054.47;5056801;28;20062;-37
2022/06/30 01:34:27;;;;;;;;;;;;;;;20.02;69.63;101053.66;5056894;28;20305;-37
2022/06/30 01:36:52;;;;;;;;;;;;;;;20.02;69.64;101050.09;5056556;28;19912;-37
2022/06/30 01:39:17;;;;;;;;;;;;;;;20.01;69.49;101054.78;5056469;28;19912;-37
2022/06/30 01:41:42;;;;;;;;;;;;;;;20.00;69.67;101061.34;5057315;28;19919;-37
2022/06/30 01:44:08;;;;;;;;;;;;;;;19.97;69.79;101056.47;5057183;28;19944;-37
2022/06/30 01:46:33;;;;;;;;;;;;;;;19.96;69.54;101056.72;5056914;28;19913;-37
2022/06/30 01:48:58;;;;;;;;;;;;;;;19.94;69.75;101057.03;5056296;28;19917;-37
2022/06/30 01:51:23;;;;;;;;;;;;;;;19.90;69.66;101061.44;5056292;28;20351;-37
2022/06/30 01:53:49;;;;;;;;;;;;;;;19.86;69.83;101065.06;5056212;28;20416;-37
2022/06/30 01:56:14;;;;;;;;;;;;;;;19.83;69.86;101060.97;5056050;28;19948;-37
2022/06/30 01:58:39;;;;;;;;;;;;;;;19.79;70.08;101059.91;5055925;28;20011;-37
2022/06/30 02:01:04;;;;;;;;;;;;;;;19.72;69.73;101054.75;5056217;28;20000;-37
2022/06/30 02:03:31;;;;;;;;;;;;;;;19.67;70.11;101062.22;5056331;28;19962;-37
2022/06/30 02:05:56;;;;;;;;;;;;;;;19.60;69.99;101062.53;5055980;28;20011;-37
2022/06/30 02:08:21;;;;;;;;;;;;;;;19.55;70.46;101070.75;5056139;28;20415;-37
2022/06/30 02:10:46;;;;;;;;;;;;;;;19.51;70.42;101066.94;5055936;28;20277;-37
2022/06/30 02:13:11;;;;;;;;;;;;;;;19.49;70.54;101069.97;5055650;28;20270;-37
2022/06/30 02:15:37;;;;;;;;;;;;;;;19.46;70.52;101069.72;5055949;28;19979;-37
2022/06/30 02:18:03;;;;;;;;;;;;;;;19.44;70.66;101080.19;5056211;28;19912;-37
2022/06/30 02:20:28;;;;;;;;;;;;;;;19.42;70.70;101072.25;5056112;28;19912;-37
2022/06/30 02:22:55;;;;;;;;;;;;;;;19.41;70.76;101072.50;5055813;28;19984;-37
2022/06/30 02:25:20;;;;;;;;;;;;;;;19.38;70.71;101064.88;5055599;28;19966;-37
2022/06/30 02:27:46;;;;;;;;;;;;;;;19.38;71.03;101059.38;5055371;28;19913;-36
2022/06/30 02:30:11;;;;;;;;;;;;;;;19.38;70.72;101062.13;5055466;28;19916;-36
2022/06/30 02:32:36;;;;;;;;;;;;;;;19.37;71.01;101060.47;5056556;28;20246;-36
2022/06/30 02:35:02;;;;;;;;;;;;;;;19.34;70.95;101066.53;5055895;28;20265;-37
2022/06/30 02:37:27;;;;;;;;;;;;;;;19.32;71.25;101066.78;5055453;28;19919;-36
2022/06/30 02:39:53;;;;;;;;;;;;;;;19.30;71.35;101074.50;5055100;28;19920;-37
2022/06/30 02:42:18;;;;;;;;;;;;;;;19.26;71.01;101068.75;5055668;28;19966;-36
2022/06/30 02:44:43;;;;;;;;;;;;;;;19.21;71.31;101074.28;5055049;28;19913;-36
2022/06/30 02:47:08;;;;;;;;;;;;;;;19.18;71.86;101077.59;5055347;28;19913;-37
2022/06/30 02:49:35;;;;;;;;;;;;;;;19.14;71.89;101079.25;5055319;28;19913;-37
2022/06/30 02:52:00;;;;;;;;;;;;;;;19.09;72.53;101065.59;5055147;28;19913;-37
2022/06/30 02:54:25;;;;;;;;;;;;;;;19.06;71.79;101079.84;5055708;28;19928;-37
2022/06/30 02:56:50;;;;;;;;;;;;;;;19.04;71.95;101071.91;5088064;28;19919;-36
2022/06/30 02:59:16;;;;;;;;;;;;;;;19.02;71.96;101076.84;5055426;28;19942;-37
2022/06/30 03:01:41;;;;;;;;;;;;;;;18.99;71.56;101079.34;5055523;28;20007;-36
2022/06/30 03:04:07;;;;;;;;;;;;;;;18.95;71.87;101070.84;5055090;28;20380;-36
2022/06/30 03:06:33;;;;;;;;;;;;;;;18.93;72.00;101077.69;5053675;28;19920;-37
2022/06/30 03:08:59;;;;;;;;;;;;;;;18.89;72.27;101062.94;5054852;28;19917;-36
2022/06/30 03:11:24;;;;;;;;;;;;;;;18.85;71.92;101070.91;5054807;28;19958;-37
2022/06/30 03:13:50;;;;;;;;;;;;;;;18.85;71.98;101073.66;5054709;28;19913;-37
2022/06/30 03:16:15;;;;;;;;;;;;;;;18.86;72.40;101068.97;5054955;28;19953;-37
2022/06/30 03:18:41;;;;;;;;;;;;;;;18.82;72.24;101076.13;5055132;28;19916;-36
2022/06/30 03:21:06;;;;;;;;;;;;;;;18.79;72.31;101069.28;5054914;28;19913;-36
2022/06/30 03:23:32;;;;;;;;;;;;;;;18.74;72.74;101061.09;5054168;28;20380;-36
2022/06/30 03:25:57;;;;;;;;;;;;;;;18.70;72.46;101065.50;5054515;28;19912;-37
2022/06/30 03:28:23;;;;;;;;;;;;;;;18.66;72.95;101056.97;5054233;28;19975;-36
2022/06/30 03:30:48;;;;;;;;;;;;;;;18.66;72.61;101059.72;5054377;28;19913;-37
2022/06/30 03:33:14;;;;;;;;;;;;;;;18.63;72.86;101053.97;5054176;28;20003;-36
2022/06/30 03:35:39;;;;;;;;;;;;;;;18.63;72.63;101053.97;5054173;28;20284;-36
2022/06/30 03:38:04;;;;;;;;;;;;;;;18.61;73.16;101048.78;5054891;28;19935;-36
2022/06/30 03:40:30;;;;;;;;;;;;;;;18.58;73.04;101052.06;5054772;28;19920;-37
2022/06/30 03:42:55;;;;;;;;;;;;;;;18.53;73.19;101050.16;5054568;28;19963;-36
2022/06/30 03:45:20;;;;;;;;;;;;;;;18.53;73.20;101049.34;5054985;28;20361;-37
2022/06/30 03:47:45;;;;;;;;;;;;;;;18.53;73.16;101052.91;5054832;28;19912;-37
2022/06/30 03:50:11;;;;;;;;;;;;;;;18.50;73.47;101049.94;5053604;28;19917;-36
2022/06/30 03:52:36;;;;;;;;;;;;;;;18.48;73.49;101057.59;5054172;28;19952;-37
2022/06/30 03:55:01;;;;;;;;;;;;;;;18.45;73.47;101048.03;5054472;28;19916;-36
2022/06/30 03:57:27;;;;;;;;;;;;;;;18.43;73.71;101049.38;5054812;28;19919;-36
2022/06/30 03:59:52;;;;;;;;;;;;;;;18.42;73.83;101048.56;5053651;28;19912;-36
2022/06/30 04:02:17;;;;;;;;;;;;;;;18.42;73.67;101042.28;5054195;28;19912;-36
2022/06/30 04:04:42;;;;;;;;;;;;;;;18.41;73.65;101035.97;5052780;28;19913;-37
2022/06/30 04:07:08;;;;;;;;;;;;;;;18.39;73.61;101026.38;5054232;28;20353;-36
2022/06/30 04:09:33;;;;;;;;;;;;;;;18.39;74.04;101026.38;5053709;28;19913;-37
2022/06/30 04:11:58;;;;;;;;;;;;;;;18.38;73.81;101041.19;5054234;28;19923;-36
2022/06/30 04:14:23;;;;;;;;;;;;;;;18.43;74.08;101038.44;5053719;28;19924;-37
2022/06/30 04:16:48;;;;;;;;;;;;;;;18.46;73.61;101043.34;5053470;28;19936;-37
2022/06/30 04:19:14;;;;;;;;;;;;;;;18.47;74.42;101037.59;5053377;28;19920;-37
2022/06/30 04:21:39;;;;;;;;;;;;;;;18.45;73.67;101045.28;5052945;28;19913;-36
2022/06/30 04:24:04;;;;;;;;;;;;;;;18.46;74.09;101032.41;5053831;28;19912;-36
2022/06/30 04:26:29;;;;;;;;;;;;;;;18.50;74.48;101041.72;5053723;28;19920;-36
2022/06/30 04:28:55;;;;;;;;;;;;;;;18.52;75.58;101034.03;5053408;28;19969;-36
2022/06/30 04:34:03;;;;;;;;;;;;;;;18.50;75.08;101034.31;5054042;28;19955;-36
2022/06/30 04:36:29;;;;;;;;;;;;;;;18.55;74.50;101040.88;5053075;28;19912;-36
2022/06/30 04:38:55;;;;;;;;;;;;;;;18.59;74.79;101048.22;5053225;28;19935;-36
2022/06/30 04:41:26;;;;;;;;;;;;;;;18.64;75.57;101072.03;5053089;28;19912;-36
2022/06/30 04:43:51;;;;;;;;;;;;;;;18.70;75.61;101066.31;5053785;28;20304;-37
2022/06/30 04:46:16;;;;;;;;;;;;;;;18.76;75.46;101058.88;5053391;28;19913;-36
2022/06/30 04:48:42;;;;;;;;;;;;;;;18.83;76.19;101055.84;5052993;28;19913;-36
2022/06/30 04:51:08;;;;;;;;;;;;;;;18.85;75.87;101092.00;5053468;28;19913;-36
2022/06/30 04:53:33;;;;;;;;;;;;;;;18.90;77.66;101065.41;5053187;28;19912;-36
2022/06/30 04:55:58;;;;;;;;;;;;;;;18.90;76.11;101057.19;5053604;28;19916;-37
2022/06/30 04:58:24;;;;;;;;;;;;;;;18.94;75.84;101065.66;5053669;28;19912;-36
2022/06/30 05:00:49;;;;;;;;;;;;;;;19.01;76.14;101105.34;5053085;28;19966;-36
2022/06/30 05:03:14;;;;;;;;;;;;;;;19.03;78.10;101074.91;5055790;28;19917;-36
2022/06/30 05:05:39;;;;;;;;;;;;;;;19.03;76.86;101089.47;5057223;28;19999;-37
2022/06/30 05:08:05;;;;;;;;;;;;;;;19.08;78.18;101088.63;5057099;28;20335;-36
2022/06/30 05:10:30;;;;;;;;;;;;;;;19.10;78.59;101082.84;5057005;28;19951;-36
2022/06/30 05:12:55;;;;;;;;;;;;;;;19.16;77.52;101100.91;5057041;28;19920;-37
2022/06/30 05:15:20;;;;;;;;;;;;;;;19.22;78.96;101086.06;5056648;28;19916;-37
2022/06/30 05:17:45;;;;;;;;;;;;;;;19.28;77.80;101083.03;5056958;28;19913;-37
2022/06/30 05:20:11;;;;;;;;;;;;;;;19.34;78.37;101099.44;5057448;28;19962;-37
2022/06/30 05:22:36;;;;;;;;;;;;;;;19.39;78.22;101089.25;5057667;28;19912;-37
2022/06/30 05:27:46;;;;;;;;;;;;;;;19.46;77.45;101088.94;5056880;28;20011;-37
2022/06/30 05:30:11;;;;;;;;;;;;;;;19.54;77.05;101085.59;5056958;28;19944;-37
2022/06/30 05:32:37;;;;;;;;;;;;;;;19.61;76.07;101085.28;5057236;28;19912;-36
2022/06/30 05:35:03;;;;;;;;;;;;;;;19.63;76.35;101086.66;5057114;28;19958;-36
2022/06/30 05:37:28;;;;;;;;;;;;;;;19.71;76.26;101094.25;5057227;28;19912;-36
2022/06/30 05:39:53;;;;;;;;;;;;;;;19.78;76.70;101086.53;5056299;28;20287;-36
2022/06/30 05:42:18;;;;;;;;;;;;;;;19.85;76.66;101086.19;5056787;28;20371;-36
2022/06/30 05:44:44;;;;;;;;;;;;;;;19.90;76.89;101088.06;5056910;28;20452;-36
2022/06/30 05:47:09;;;;;;;;;;;;;;;19.95;76.35;101088.03;5056631;28;19963;-36
2022/06/30 05:49:34;;;;;;;;;;;;;;;20.00;75.98;101085.25;5056048;28;19955;-37
2022/06/30 05:55:02;;;;;;;;;;;;;;;20.08;76.10;101095.59;5055995;28;19978;-36
2022/06/30 05:57:27;;;;;;;;;;;;;;;20.09;75.37;101078.03;5056792;28;20408;-36
2022/06/30 05:59:52;;;;;;;;;;;;;;;20.11;76.56;101089.56;5056411;28;19913;-36
2022/06/30 06:02:17;;;;;;;;;;;;;;;20.10;76.91;101096.13;5056591;28;19913;-36
2022/06/30 06:04:42;;;;;;;;;;;;;;;20.16;76.08;101094.19;5056091;28;19920;-36
2022/06/30 06:07:08;;;;;;;;;;;;;;;20.22;75.64;101093.00;5056296;28;19920;-37
2022/06/30 06:09:33;;;;;;;;;;;;;;;20.28;75.43;101084.44;5055695;28;19912;-36
2022/06/30 06:11:58;;;;;;;;;;;;;;;20.31;77.68;101091.28;5056252;28;19917;-36
2022/06/30 06:14:23;;;;;;;;;;;;;;;20.36;75.89;101090.41;5055374;28;19932;-36
2022/06/30 06:16:48;;;;;;;;;;;;;;;20.36;75.61;101101.41;5056376;28;20266;-36
2022/06/30 06:19:14;;;;;;;;;;;;;;;20.37;75.22;101100.28;5055762;28;19912;-35
2022/06/30 06:21:40;;;;;;;;;;;;;;;20.41;75.46;101104.09;5055510;28;19913;-35
2022/06/30 06:24:05;;;;;;;;;;;;;;;20.46;75.68;101098.53;5055371;28;19912;-35
2022/06/30 06:26:30;;;;;;;;;;;;;;;20.53;75.18;101110.03;5056068;28;20337;-35
2022/06/30 06:29:08;;;;;;;;;;;;;;;20.57;75.36;101111.91;5055276;28;20028;-36
2022/06/30 06:31:35;;;;;;;;;;;;;;;20.59;74.90;101106.09;5054862;28;20341;-36
2022/06/30 06:34:01;;;;;;;;;;;;;;;20.64;74.23;101114.28;5055965;28;20356;-37
2022/06/30 06:36:26;;;;;;;;;;;;;;;20.66;73.78;101111.25;5056245;28;19913;-36
2022/06/30 06:38:52;;;;;;;;;;;;;;;20.64;73.66;101113.47;5055881;28;20344;-37
2022/06/30 06:41:20;;;;;;;;;;;;;;;20.67;73.85;101107.41;5055927;28;19913;-37
2022/06/30 06:43:46;;;;;;;;;;;;;;;20.71;73.80;101112.03;5055794;28;19913;-37
2022/06/30 06:46:12;;;;;;;;;;;;;;;20.74;73.58;101107.84;5055568;28;20363;-36
2022/06/30 06:48:37;;;;;;;;;;;;;;;20.77;73.66;101116.34;5055203;28;19920;-37
2022/06/30 06:51:02;;;;;;;;;;;;;;;20.80;73.78;101124.00;5055457;28;19923;-36
2022/06/30 06:53:28;;;;;;;;;;;;;;;20.81;73.36;101120.13;5054802;28;19920;-37
2022/06/30 06:55:53;;;;;;;;;;;;;;;20.83;73.32;101128.91;5055136;28;20000;-36
2022/06/30 06:58:18;;;;;;;;;;;;;;;20.88;73.56;101121.72;5055023;28;19919;-37
2022/06/30 07:00:43;;;;;;;;;;;;;;;20.92;73.47;101125.50;5055532;28;20003;-37
2022/06/30 07:03:08;;;;;;;;;;;;;;;20.94;73.42;101126.06;5054972;28;20264;-37
2022/06/30 07:05:33;;;;;;;;;;;;;;;21.03;73.78;101135.25;5054842;28;20360;-37
2022/06/30 07:08:00;;;;;;;;;;;;;;;21.06;73.38;101124.50;5056058;28;19942;-37
2022/06/30 07:10:26;;;;;;;;;;;;;;;21.12;73.13;101132.69;5055026;28;19912;-37
2022/06/30 07:12:51;;;;;;;;;;;;;;;21.11;73.04;101137.38;5055080;28;19924;-36
2022/06/30 07:15:17;;;;;;;;;;;;;;;21.10;73.28;101144.00;5054414;28;19966;-37
2022/06/30 07:17:42;;;;;;;;;;;;;;;21.12;73.15;101147.25;5054946;28;20004;-37
2022/06/30 07:20:08;;;;;;;;;;;;;;;21.11;72.99;101145.63;5054639;28;20293;-36
2022/06/30 07:22:34;;;;;;;;;;;;;;;21.13;73.09;101154.41;5055098;28;20005;-37
2022/06/30 07:24:59;;;;;;;;;;;;;;;21.17;72.79;101160.94;5053991;28;19917;-37
2022/06/30 07:27:24;;;;;;;;;;;;;;;21.21;72.56;101162.00;5053886;28;19913;-37
2022/06/30 07:29:49;;;;;;;;;;;;;;;21.24;72.76;101163.34;5054601;28;20312;-37
2022/06/30 07:32:14;;;;;;;;;;;;;;;21.29;73.56;101166.84;5054772;28;20057;-37
2022/06/30 07:34:40;;;;;;;;;;;;;;;21.37;72.83;101165.38;5054640;28;20321;-37
2022/06/30 07:37:05;;;;;;;;;;;;;;;21.44;73.23;101170.53;5054481;28;20008;-37
2022/06/30 07:39:30;;;;;;;;;;;;;;;21.47;72.39;101179.03;5054293;28;19912;-36
2022/06/30 07:41:55;;;;;;;;;;;;;;;21.48;72.03;101168.84;5054476;28;19919;-36
2022/06/30 07:44:21;;;;;;;;;;;;;;;21.54;72.08;101173.16;5054254;28;20015;-37
2022/06/30 07:46:55;;;;;;;;;;;;;;;21.63;71.58;101176.88;5071282;28;20273;-36
2022/06/30 07:49:21;;;;;;;;;;;;;;;21.69;71.74;101177.63;5070498;28;19974;-36
2022/06/30 07:51:46;;;;;;;;;;;;;;;21.76;70.95;101172.53;5071112;28;19966;-36
2022/06/30 07:54:11;;;;;;;;;;;;;;;21.80;70.29;101185.41;5071015;28;19924;-36
2022/06/30 07:56:36;;;;;;;;;;;;;;;21.84;68.96;101189.22;5070695;28;19917;-37
2022/06/30 07:59:02;;;;;;;;;;;;;;;21.90;69.05;101184.44;5070587;28;19917;-36
2022/06/30 08:01:28;;;;;;;;;;;;;;;21.97;68.92;101189.59;5070685;28;20011;-36
2022/06/30 08:03:53;;;;;;;;;;;;;;;22.00;67.87;101180.72;5071228;28;20316;-36
2022/06/30 08:06:18;;;;;;;;;;;;;;;22.04;68.38;101187.25;5070857;28;20415;-36
2022/06/30 08:08:44;;;;;;;;;;;;;;;22.12;68.25;101183.06;5070324;28;19962;-36
2022/06/30 08:11:12;;;;;;;;;;;;;;;22.19;67.66;101178.78;5070837;28;19963;-36
2022/06/30 08:13:37;;;;;;;;;;;;;;;22.23;67.54;101177.06;5069929;28;19932;-36
2022/06/30 08:16:03;;;;;;;;;;;;;;;22.29;66.37;101175.84;5070536;28;19924;-36
2022/06/30 08:18:29;;;;;;;;;;;;;;;22.35;65.39;101171.91;5070573;28;19916;-36
2022/06/30 08:20:54;;;;;;;;;;;;;;;22.43;65.26;101169.56;5070381;28;20347;-36
2022/06/30 08:23:19;;;;;;;;;;;;;;;22.50;65.99;101164.50;5070065;28;20288;-36
2022/06/30 08:25:45;;;;;;;;;;;;;;;22.60;66.42;101172.56;5070142;28;19938;-36
2022/06/30 08:28:10;;;;;;;;;;;;;;;22.73;65.12;101173.69;5069970;28;19917;-36
2022/06/30 08:30:35;;;;;;;;;;;;;;;22.50;64.52;101167.25;5069873;28;19978;-37
2022/06/30 08:33:01;;;;;;;;;;;;;;;22.60;65.77;101170.63;5069728;28;20320;-37
2022/06/30 08:35:26;;;;;;;;;;;;;;;22.76;65.59;101173.91;5069596;28;19924;-37
2022/06/30 08:37:53;;;;;;;;;;;;;;;22.93;65.69;101169.75;5069915;28;19916;-37
2022/06/30 08:43:03;;;;;;;;;;;;;;;23.18;64.28;101163.75;5070255;28;20375;-36
2022/06/30 08:45:29;;;;;;;;;;;;;;;23.29;64.19;101165.16;5070363;28;19995;-36
2022/06/30 08:47:54;;;;;;;;;;;;;;;23.23;63.34;101160.88;5068981;28;19921;-37
2022/06/30 08:50:20;;;;;;;;;;;;;;;23.33;63.08;101160.66;5069588;28;20435;-36
2022/06/30 08:52:46;;;;;;;;;;;;;;;23.43;63.54;101167.06;5070456;28;19917;-36
2022/06/30 08:55:15;;;;;;;;;;;;;;;23.53;63.14;101164.09;5069660;28;20289;-36
2022/06/30 08:57:41;;;;;;;;;;;;;;;23.67;62.79;101170.41;5059529;28;20387;-37
2022/06/30 09:00:07;;;;;;;;;;;;;;;23.80;62.51;101169.53;5056093;28;20254;-37
2022/06/30 09:02:32;;;;;;;;;;;;;;;23.94;63.11;101171.44;5056377;28;19924;-36
2022/06/30 09:04:58;;;;;;;;;;;;;;;24.08;62.37;101169.44;5056670;28;19917;-36
2022/06/30 09:07:24;;;;;;;;;;;;;;;24.14;62.23;101173.69;5056158;28;19924;-36
2022/06/30 09:09:49;;;;;;;;;;;;;;;24.26;59.91;101170.38;5056049;28;19928;-36
2022/06/30 09:12:15;;;;;;;;;;;;;;;24.37;62.04;101177.31;5056441;28;19921;-37
2022/06/30 09:14:41;;;;;;;;;;;;;;;24.51;61.56;101174.47;5055528;28;20045;-37
2022/06/30 09:17:10;;;;;;;;;;;;;;;24.65;59.98;101172.41;5056627;28;19917;-37
2022/06/30 09:19:40;;;;;;;;;;;;;;;24.71;58.52;101170.31;5056037;28;19928;-37
2022/06/30 09:22:10;;;;;;;;;;;;;;;24.73;59.29;101168.84;5056003;28;19917;-36
2022/06/30 09:24:36;;;;;;;;;;;;;;;24.82;60.54;101175.25;5055839;28;19921;-37
2022/06/30 09:27:10;;;;;;;;;;;;;;;24.98;60.06;101178.41;5055395;28;20387;-37
2022/06/30 09:29:46;;;;;;;;;;;;;;;25.04;57.84;101173.56;5055107;28;19923;-37
2022/06/30 09:32:11;;;;;;;;;;;;;;;25.07;58.53;101178.47;5055813;28;20411;-37
2022/06/30 09:34:38;;;;;;;;;;;;;;;25.12;57.90;101187.41;5055466;28;19917;-36
2022/06/30 09:37:13;;;;;;;;;;;;;;;25.15;57.66;101172.97;5055901;28;19924;-36
2022/06/30 09:39:41;;;;;;;;;;;;;;;25.25;56.85;101182.09;5055416;28;19974;-37
2022/06/30 09:42:06;;;;;;;;;;;;;;;25.34;57.24;101180.97;5055854;28;20008;-37
2022/06/30 09:44:34;;;;;;;;;;;;;;;25.41;56.86;101188.81;5055005;28;20016;-36
2022/06/30 09:47:07;;;;;;;;;;;;;;;25.24;55.74;101178.53;5055662;28;19916;-36
2022/06/30 09:49:34;;;;;;;;;;;;;;;25.22;56.35;101178.00;5055194;28;19924;-37
2022/06/30 09:52:03;;;;;;;;;;;;;;;25.12;56.79;101183.84;5055853;28;20022;-37
2022/06/30 09:54:31;;;;;;;;;;;;;;;25.17;55.91;101184.50;5054996;28;20024;-36
2022/06/30 09:57:06;;;;;;;;;;;;;;;25.28;55.34;101185.03;5055537;28;19956;-36
2022/06/30 09:59:31;;;;;;;;;;;;;;;25.41;55.32;101178.53;5054863;28;19967;-36
2022/06/30 10:01:58;;;;;;;;;;;;;;;25.47;55.20;101173.66;5054974;28;19956;-36
2022/06/30 10:04:24;;;;;;;;;;;;;;;25.65;55.88;101182.81;5055309;28;20227;-37
2022/06/30 10:06:49;;;;;;;;;;;;;;;25.78;54.47;101187.41;5055257;28;19917;-37
2022/06/30 10:09:19;;;;;;;;;;;;;;;25.91;55.36;101191.16;5054287;28;20326;-37
2022/06/30 10:11:47;;;;;;;;;;;;;;;25.94;54.85;101188.56;5055649;28;20003;-37
2022/06/30 10:14:14;;;;;;;;;;;;;;;25.98;54.44;101185.94;5054749;28;19987;-37
2022/06/30 10:16:40;;;;;;;;;;;;;;;26.04;53.32;101190.19;5054567;28;20054;-37
2022/06/30 10:19:07;;;;;;;;;;;;;;;26.07;55.25;101188.72;5055340;28;20046;-37
2022/06/30 10:21:33;;;;;;;;;;;;;;;26.19;53.57;101191.63;5055082;28;19924;-37
2022/06/30 10:23:58;;;;;;;;;;;;;;;26.21;52.71;101194.91;5054237;28;20377;-37
2022/06/30 10:29:09;;;;;;;;;;;;;;;26.26;53.96;101189.19;5054298;28;19924;-36
2022/06/30 10:31:39;;;;;;;;;;;;;;;26.32;54.59;101176.78;5054928;28;19932;-37
2022/06/30 10:34:08;;;;;;;;;;;;;;;26.32;51.96;101174.00;5054046;28;19943;-37
2022/06/30 10:36:50;;;;;;;;;;;;;;;26.43;51.69;101169.75;5054582;28;19917;-37
2022/06/30 10:39:24;;;;;;;;;;;;;;;26.41;53.26;101166.47;5054177;28;19983;-37
2022/06/30 10:41:50;;;;;;;;;;;;;;;26.37;52.76;101171.06;5054235;28;19917;-37
2022/06/30 10:44:24;;;;;;;;;;;;;;;26.36;53.58;101171.41;5054422;28;19917;-37
2022/06/30 10:46:56;;;;;;;;;;;;;;;26.17;52.33;101174.53;5054765;28;20313;-37
2022/06/30 10:49:23;;;;;;;;;;;;;;;26.17;53.35;101178.09;5054383;28;19931;-37
2022/06/30 10:51:49;;;;;;;;;;;;;;;26.39;52.07;101167.94;5055022;28;19920;-37
2022/06/30 10:54:28;;;;;;;;;;;;;;;26.53;51.87;101165.81;5054252;28;19975;-37
2022/06/30 10:56:57;;;;;;;;;;;;;;;26.71;52.37;101163.81;5053923;28;19917;-37
2022/06/30 10:59:43;;;;;;;;;;;;;;;26.92;52.70;101167.47;5054606;28;19917;-37
2022/06/30 11:02:08;;;;;;;;;;;;;;;27.10;50.37;101159.09;5053887;28;19978;-37
2022/06/30 11:04:34;;;;;;;;;;;;;;;27.19;51.07;101159.84;5053634;28;19917;-36
2022/06/30 11:07:01;;;;;;;;;;;;;;;27.20;48.77;101153.94;5054540;28;19964;-37
2022/06/30 11:09:44;;;;;;;;;;;;;;;27.21;49.86;101161.13;5053985;28;19916;-37
2022/06/30 11:12:10;;;;;;;;;;;;;;;27.32;50.57;101157.97;5053742;28;19997;-36
2022/06/30 11:14:35;;;;;;;;;;;;;;;27.23;48.51;101163.56;5053431;28;19967;-36
2022/06/30 11:17:12;;;;;;;;;;;;;;;26.99;50.17;101169.72;5053971;28;19921;-36
2022/06/30 11:19:37;;;;;;;;;;;;;;;26.83;50.45;101172.22;5053588;28;20324;-36
2022/06/30 11:22:03;;;;;;;;;;;;;;;26.54;50.00;101174.94;5054180;28;19916;-36
2022/06/30 11:24:29;;;;;;;;;;;;;;;26.39;50.50;101167.94;5053139;28;19925;-36
2022/06/30 11:29:39;;;;;;;;;;;;;;;26.78;50.93;101166.88;5053719;28;19924;-36
2022/06/30 11:32:04;;;;;;;;;;;;;;;26.73;50.55;101150.41;5053321;28;19917;-36
2022/06/30 11:34:31;;;;;;;;;;;;;;;26.72;51.10;101159.06;5053428;28;19992;-37
2022/06/30 11:36:56;;;;;;;;;;;;;;;26.66;51.58;101155.66;5053525;28;19939;-37
2022/06/30 11:39:22;;;;;;;;;;;;;;;26.62;50.61;101160.25;5053176;28;19917;-36
2022/06/30 11:41:56;;;;;;;;;;;;;;;26.52;50.84;101160.63;5053518;28;19917;-36
2022/06/30 11:44:22;;;;;;;;;;;;;;;26.18;51.75;101148.44;5053265;28;19917;-37
2022/06/30 11:46:53;;;;;;;;;;;;;;;26.22;52.50;101146.63;5052930;28;19921;-37
2022/06/30 11:49:18;;;;;;;;;;;;;;;26.30;52.48;101142.19;5053318;28;20354;-37
2022/06/30 11:51:44;;;;;;;;;;;;;;;26.46;52.72;101145.31;5052814;28;19923;-37
2022/06/30 11:54:10;;;;;;;;;;;;;;;26.67;52.03;101141.47;5053173;28;19917;-37
2022/06/30 11:56:54;;;;;;;;;;;;;;;27.00;51.89;101137.25;5053627;28;20023;-37
2022/06/30 11:59:20;;;;;;;;;;;;;;;27.31;50.90;101136.91;5053650;28;19939;-37
2022/06/30 12:02:04;;;;;;;;;;;;;;;27.31;49.26;101125.78;5053101;28;19917;-37
2022/06/30 12:04:29;;;;;;;;;;;;;;;27.24;49.91;101126.34;5052701;28;20357;-37
2022/06/30 12:06:55;;;;;;;;;;;;;;;27.18;50.15;101122.97;5052757;28;19927;-37
2022/06/30 12:09:20;;;;;;;;;;;;;;;27.08;50.07;101111.41;5053240;28;19959;-37
2022/06/30 12:11:46;;;;;;;;;;;;;;;26.96;50.42;101115.69;5053013;28;20353;-37
2022/06/30 12:14:11;;;;;;;;;;;;;;;26.89;50.54;101114.59;5053188;28;19917;-37
2022/06/30 12:16:36;;;;;;;;;;;;;;;26.80;50.70;101111.88;5052770;28;20329;-36
2022/06/30 12:19:01;;;;;;;;;;;;;;;26.67;51.12;101104.59;5052587;28;19916;-37
2022/06/30 12:21:27;;;;;;;;;;;;;;;26.57;51.68;101094.69;5052685;28;20012;-37
2022/06/30 12:23:53;;;;;;;;;;;;;;;26.62;51.69;101099.22;5052601;28;19935;-37
2022/06/30 12:26:18;;;;;;;;;;;;;;;26.61;51.69;101097.63;5052840;28;19917;-37
2022/06/30 12:28:44;;;;;;;;;;;;;;;26.64;51.78;101096.94;5052517;28;19917;-37
2022/06/30 12:31:09;;;;;;;;;;;;;;;26.82;51.92;101084.59;5053245;28;19917;-37
2022/06/30 12:33:39;;;;;;;;;;;;;;;26.55;50.25;101082.28;5056229;28;19921;-37
2022/06/30 12:36:04;;;;;;;;;;;;;;;26.79;51.18;101073.34;5056749;28;19917;-37
2022/06/30 12:38:30;;;;;;;;;;;;;;;27.00;50.60;101060.34;5056419;28;20046;-37
2022/06/30 12:40:55;;;;;;;;;;;;;;;27.33;50.57;101057.69;5056729;28;19921;-37
2022/06/30 12:43:20;;;;;;;;;;;;;;;27.48;50.99;101055.44;5056418;28;20373;-37
2022/06/30 12:45:55;;;;;;;;;;;;;;;27.46;50.15;101058.53;5056534;28;19970;-36
2022/06/30 12:48:39;;;;;;;;;;;;;;;27.41;50.39;101053.19;5056786;28;20015;-37
2022/06/30 12:51:05;;;;;;;;;;;;;;;27.24;49.50;101064.47;5056134;28;19921;-37
2022/06/30 12:53:30;;;;;;;;;;;;;;;26.95;50.23;101066.91;5056503;28;19923;-37